Terminal Aerodrome Forecast
Issued by NWS

Home | Current Version | Previous Version | Text Only | Print | Product List | Glossary On
Versions: 1 2 3 4 5 6 7 8 9 10 11 12 13 14 15 16 17
000
FTUS43 KDLH 200531
TAFBRD
TAF
KBRD 200531Z 2006/2106 14009KT P6SM BKN160 WS020/18045KT
     FM201100 14011KT 6SM BR VCSH SCT015 OVC130 WS020/19040KT
     FM201500 16010G15KT 6SM -RA BR SCT007 OVC015
     FM201700 15009G14KT 4SM -RA BR VCTS OVC007CB
     FM202200 20007KT 6SM -DZ BR SCT008 OVC015
     FM210000 24006KT 6SM BR VCSH BKN015
     FM210300 30010KT P6SM SCT015=

USA.gov is the U.S. government's official web portal to all federal, state and local government web resources and services.